Time;durP1;ratioP1;P1;durP2;ratioP2;P2;SDS_P1;SDS_P2;PMS_P1;PMS_P2;Temp;Humidity;BMP_temperature;BMP_pressure;BME280_temperature;BME280_humidity;BME280_pressure;Samples;Min_cycle;Max_cycle;Signal;HPM_P1;HPM_P2
2021/09/27 00:01:31;;;;;;;4.95;3.15;;;;;;;23.68;61.87;101115.48;1767074;79;21101;-54
2021/09/27 00:03:57;;;;;;;3.58;2.50;;;;;;;23.68;61.86;101111.32;1719892;81;21582;-55
2021/09/27 00:06:23;;;;;;;3.77;2.62;;;;;;;23.68;61.89;101114.09;1751119;80;22058;-56
2021/09/27 00:08:49;;;;;;;2.90;2.30;;;;;;;23.68;62.00;101116.88;1794963;78;21095;-56
2021/09/27 00:11:22;;;;;;;4.55;3.25;;;;;;;23.70;62.09;101119.33;1758877;80;21001;-56
2021/09/27 00:13:54;;;;;;;3.90;2.85;;;;;;;23.71;62.19;101122.36;1791460;77;21627;-56
2021/09/27 00:16:21;;;;;;;3.80;3.00;;;;;;;23.71;62.22;101114.84;1792515;79;21003;-56
2021/09/27 00:18:47;;;;;;;4.20;3.20;;;;;;;23.72;62.20;101108.12;1794872;78;21195;-56
2021/09/27 00:21:20;;;;;;;3.20;2.72;;;;;;;23.72;62.16;101103.95;1787706;77;20916;-56
2021/09/27 00:23:47;;;;;;;4.90;3.22;;;;;;;23.72;62.08;101102.56;1788875;77;21027;-56
2021/09/27 00:26:14;;;;;;;3.52;2.80;;;;;;;23.71;62.02;101098.75;1816039;77;21492;-56
2021/09/27 00:28:40;;;;;;;5.22;3.37;;;;;;;23.70;61.99;101102.66;1825121;77;21401;-56
2021/09/27 00:31:06;;;;;;;4.97;3.58;;;;;;;23.68;61.95;101099.42;1818480;77;21256;-56
2021/09/27 00:33:32;;;;;;;4.90;3.00;;;;;;;23.64;61.96;101093.11;1815911;77;21086;-57
2021/09/27 00:35:58;;;;;;;3.67;3.02;;;;;;;23.65;61.92;101104.47;1817998;77;21044;-56
2021/09/27 00:38:25;;;;;;;3.50;2.77;;;;;;;23.63;61.97;101097.06;1821927;77;21021;-56
2021/09/27 00:40:56;;;;;;;5.15;3.00;;;;;;;23.65;62.08;101096.71;1822100;77;21114;-56
2021/09/27 00:43:23;;;;;;;4.50;2.90;;;;;;;23.65;62.16;101091.16;1814567;77;21473;-56
2021/09/27 00:45:53;;;;;;;4.62;3.52;;;;;;;23.66;62.23;101090.84;1816680;77;21055;-56
2021/09/27 00:48:20;;;;;;;6.08;3.47;;;;;;;23.68;62.22;101089.91;1817883;77;20990;-56
2021/09/27 00:50:53;;;;;;;4.33;2.70;;;;;;;23.69;62.19;101083.79;1816576;77;21099;-56
2021/09/27 00:53:29;;;;;;;5.05;3.22;;;;;;;23.70;62.12;101092.38;1787339;78;21056;-56
2021/09/27 00:55:56;;;;;;;4.97;3.62;;;;;;;23.70;62.05;101094.33;1815445;77;21099;-56
2021/09/27 00:58:22;;;;;;;4.65;3.20;;;;;;;23.68;61.97;101096.64;1821837;77;20969;-55
2021/09/27 01:00:49;;;;;;;5.42;3.80;;;;;;;23.65;61.92;101091.98;1819574;77;21080;-56
2021/09/27 01:03:15;;;;;;;6.37;3.87;;;;;;;23.64;61.88;101090.91;1820400;77;21354;-56
2021/09/27 01:05:47;;;;;;;4.58;3.58;;;;;;;23.60;61.87;101089.37;1820018;77;21050;-56
2021/09/27 01:08:30;;;;;;;4.62;3.30;;;;;;;23.57;61.84;101090.05;1814037;77;21587;-56
2021/09/27 01:11:19;;;;;;;5.72;3.05;;;;;;;23.56;61.82;101090.36;1818983;77;21075;-56
2021/09/27 01:14:00;;;;;;;4.15;3.12;;;;;;;23.57;61.87;101090.61;1813365;77;21045;-56
2021/09/27 01:17:08;;;;;;;4.58;3.47;;;;;;;23.55;61.98;101099.27;1820577;77;21496;-56
2021/09/27 01:20:19;;;;;;;4.67;3.17;;;;;;;23.56;62.05;101102.29;1813786;77;21606;-56
2021/09/27 01:23:06;;;;;;;5.12;3.40;;;;;;;23.56;62.09;101097.30;1815991;77;21919;-56
2021/09/27 01:25:59;;;;;;;5.00;3.47;;;;;;;23.55;62.04;101090.14;1818173;77;21169;-54
2021/09/27 01:29:03;;;;;;;4.05;3.27;;;;;;;23.54;61.98;101091.28;1728321;80;21132;-56
2021/09/27 01:32:03;;;;;;;5.08;3.75;;;;;;;23.52;61.93;101104.09;1820996;77;21051;-56
2021/09/27 01:34:36;;;;;;;4.90;3.40;;;;;;;23.48;61.85;101096.19;1817231;77;21039;-56
2021/09/27 01:37:34;;;;;;;5.97;4.03;;;;;;;23.46;61.83;101094.33;1751444;80;21116;-56
2021/09/27 01:40:15;;;;;;;5.28;3.75;;;;;;;23.43;61.81;101094.11;1754000;79;21194;-56
2021/09/27 01:42:49;;;;;;;4.85;3.50;;;;;;;23.38;61.80;101095.10;1770740;79;21504;-56
2021/09/27 01:45:54;;;;;;;5.33;3.67;;;;;;;23.37;61.80;101100.44;1766350;80;21188;-58
2021/09/27 01:48:28;;;;;;;4.30;3.00;;;;;;;23.38;61.89;101104.03;1768187;79;21069;-56
2021/09/27 01:51:06;;;;;;;4.55;2.92;;;;;;;23.38;62.01;101101.25;1766231;79;21086;-55
2021/09/27 01:53:49;;;;;;;5.33;4.00;;;;;;;23.40;62.14;101095.60;1770192;79;21067;-55
2021/09/27 01:56:48;;;;;;;4.45;3.60;;;;;;;23.43;62.21;101098.28;1764411;79;21107;-55
2021/09/27 01:59:50;;;;;;;5.17;3.60;;;;;;;23.45;62.22;101102.41;1765818;79;21117;-55
2021/09/27 02:02:24;;;;;;;5.42;3.55;;;;;;;23.48;62.17;101107.86;1766451;79;21071;-55
2021/09/27 02:05:15;;;;;;;4.90;3.15;;;;;;;23.47;62.04;101102.88;1733681;79;21841;-55
2021/09/27 02:08:02;;;;;;;5.87;4.05;;;;;;;23.47;61.96;101102.06;1765160;79;21402;-55
2021/09/27 02:10:48;;;;;;;4.65;3.67;;;;;;;23.46;61.86;101100.45;1765413;79;21471;-55
2021/09/27 02:13:30;;;;;;;4.92;3.25;;;;;;;23.44;61.80;101099.95;1742794;81;21148;-55
2021/09/27 02:16:10;;;;;;;5.53;3.95;;;;;;;23.40;61.75;101097.56;1766956;79;21520;-55
2021/09/27 02:18:56;;;;;;;5.08;3.85;;;;;;;23.36;61.73;101097.98;1767787;79;21016;-55
2021/09/27 02:21:27;;;;;;;4.80;3.77;;;;;;;23.34;61.74;101097.50;1767039;79;21125;-55
2021/09/27 02:23:56;;;;;;;;;;;;;;;23.31;61.72;101098.14;1768822;79;21117;-55
2021/09/27 02:26:22;;;;;;;5.08;3.45;;;;;;;23.29;61.71;101099.88;1762601;79;20805;-55
2021/09/27 02:28:49;;;;;;;5.03;2.87;;;;;;;23.28;61.76;101089.91;1770751;79;21060;-55
2021/09/27 02:32:00;;;;;;;4.85;3.12;;;;;;;23.28;61.86;101092.69;1827076;77;21459;-56
2021/09/27 02:34:37;;;;;;;4.50;3.58;;;;;;;23.30;61.98;101086.81;1825303;77;20989;-56
2021/09/27 02:37:21;;;;;;;4.90;3.70;;;;;;;23.32;62.06;101087.29;1826260;77;21061;-56
2021/09/27 02:39:52;;;;;;;5.35;4.22;;;;;;;23.33;62.08;101081.41;1795183;77;21046;-56
2021/09/27 02:42:36;;;;;;;5.22;3.80;;;;;;;23.35;62.02;101079.67;1827987;77;21436;-56
2021/09/27 02:45:04;;;;;;;6.33;3.90;;;;;;;23.35;61.96;101069.39;1805493;77;21084;-57
2021/09/27 02:47:39;;;;;;;4.47;3.58;;;;;;;23.35;61.88;101069.96;1827204;76;21430;-56
2021/09/27 02:50:08;;;;;;;5.55;3.77;;;;;;;23.34;61.82;101064.19;1829392;77;21085;-56
2021/09/27 02:52:35;;;;;;;4.55;3.42;;;;;;;23.33;61.79;101073.66;1830330;77;21109;-56
2021/09/27 02:55:06;;;;;;;5.60;4.03;;;;;;;23.31;61.76;101070.38;1829133;76;21026;-56
2021/09/27 02:57:37;;;;;;;5.17;3.87;;;;;;;23.29;61.72;101069.34;1827319;77;21191;-56
2021/09/27 03:00:12;;;;;;;4.65;3.60;;;;;;;23.27;61.71;101070.80;1831440;77;21034;-56
2021/09/27 03:03:10;;;;;;;5.00;3.70;;;;;;;23.26;61.70;101068.59;1827237;77;21081;-56
2021/09/27 03:06:22;;;;;;;4.67;3.60;;;;;;;23.26;61.75;101064.42;1764914;79;21033;-56
2021/09/27 03:09:41;;;;;;;3.98;3.17;;;;;;;23.27;61.85;101070.80;1826052;77;21128;-55
2021/09/27 03:12:39;;;;;;;5.50;4.22;;;;;;;23.27;61.93;101069.41;1826063;77;21235;-55
2021/09/27 03:15:33;;;;;;;4.85;3.52;;;;;;;23.28;61.94;101065.49;1826642;77;21136;-55
2021/09/27 03:18:35;;;;;;;5.17;4.10;;;;;;;23.28;61.90;101062.15;1825540;77;21479;-56
2021/09/27 03:21:28;;;;;;;4.72;3.47;;;;;;;23.27;61.84;101068.84;1829104;77;21060;-56
2021/09/27 03:24:38;;;;;;;5.42;3.77;;;;;;;23.25;61.76;101060.61;1826520;77;21076;-56
2021/09/27 03:27:34;;;;;;;6.85;4.00;;;;;;;23.22;61.71;101061.50;1774745;79;21126;-56
2021/09/27 03:30:09;;;;;;;5.30;3.75;;;;;;;23.19;61.66;101065.51;1743027;79;21084;-56
2021/09/27 03:33:01;;;;;;;4.58;3.72;;;;;;;23.16;61.65;101069.77;1801074;77;21649;-56
2021/09/27 03:35:58;;;;;;;5.78;4.00;;;;;;;23.14;61.64;101064.28;1801310;77;21045;-56
2021/09/27 03:39:07;;;;;;;6.53;3.40;;;;;;;23.13;61.64;101065.42;1801418;77;22418;-56
2021/09/27 03:41:45;;;;;;;5.75;3.75;;;;;;;23.12;61.73;101067.41;1824881;77;21280;-55
2021/09/27 03:44:36;;;;;;;3.92;3.27;;;;;;;23.12;61.85;101068.80;1784963;78;21072;-54
2021/09/27 03:47:32;;;;;;;5.00;3.60;;;;;;;23.14;61.93;101074.00;1782444;79;21432;-56
2021/09/27 03:50:12;;;;;;;12.03;5.20;;;;;;;23.15;61.97;101076.45;1811036;77;21017;-55
2021/09/27 03:52:53;;;;;;;7.08;3.75;;;;;;;23.17;61.94;101079.70;1818876;77;21013;-57
2021/09/27 03:55:27;;;;;;;13.50;5.10;;;;;;;23.17;61.88;101079.70;1819863;77;21079;-55
2021/09/27 03:58:07;;;;;;;40.17;12.23;;;;;;;23.18;61.82;101083.30;1816058;78;21011;-58
2021/09/27 04:00:39;;;;;;;50.35;15.45;;;;;;;23.18;61.79;101083.30;1811819;77;21472;-53
2021/09/27 04:03:27;;;;;;;49.20;14.95;;;;;;;23.17;61.74;101076.11;1814075;77;21562;-55
2021/09/27 04:06:12;;;;;;;41.90;12.73;;;;;;;23.15;61.74;101082.01;1816262;77;21350;-57
2021/09/27 04:08:51;;;;;;;35.45;11.30;;;;;;;23.14;61.69;101082.33;1819094;77;20910;-55
2021/09/27 04:11:38;;;;;;;14.45;5.03;;;;;;;23.11;61.69;101072.70;1821512;77;21081;-55
2021/09/27 04:14:31;;;;;;;6.05;3.72;;;;;;;23.11;61.69;101073.27;1812817;77;21056;-53
2021/09/27 04:17:24;;;;;;;3.98;3.05;;;;;;;23.12;61.75;101077.13;1819972;77;21081;-57
2021/09/27 04:20:07;;;;;;;13.00;4.72;;;;;;;23.12;61.84;101079.90;1764484;77;21871;-51
2021/09/27 04:22:41;;;;;;;50.78;12.85;;;;;;;23.13;61.95;101082.89;1823484;77;21455;-49
2021/09/27 04:25:31;;;;;;;40.12;12.03;;;;;;;23.15;61.96;101079.80;1814219;77;21449;-52
2021/09/27 04:28:26;;;;;;;52.63;17.13;;;;;;;23.16;61.94;101078.66;1815351;77;21103;-57
2021/09/27 04:31:19;;;;;;;54.25;15.88;;;;;;;23.17;61.89;101079.70;1812597;77;21421;-56
2021/09/27 04:34:17;;;;;;;315.65;83.95;;;;;;;23.18;61.82;101081.91;1806095;76;21488;-58
2021/09/27 04:36:45;;;;;;;213.97;46.23;;;;;;;23.18;61.74;101081.91;1830079;77;21447;-57
2021/09/27 04:39:16;;;;;;;95.97;23.35;;;;;;;23.15;61.69;101083.97;1827682;77;21026;-57
2021/09/27 04:42:14;;;;;;;;;;;;;;;23.14;61.67;101086.48;1826770;78;21104;-56
2021/09/27 04:45:20;;;;;;;63.63;15.25;;;;;;;23.12;61.65;101088.22;1825006;77;20164;-57
2021/09/27 04:48:09;;;;;;;42.00;10.40;;;;;;;23.09;61.64;101083.88;1820863;77;21054;-58
2021/09/27 04:50:58;;;;;;;17.15;5.70;;;;;;;23.06;61.63;101092.86;1816817;77;21491;-55
2021/09/27 04:54:21;;;;;;;16.07;6.40;;;;;;;23.06;61.66;101088.13;1823363;77;21048;-55
2021/09/27 04:57:02;;;;;;;9.28;3.98;;;;;;;23.07;61.73;101087.56;1797303;79;20963;-57
2021/09/27 04:59:41;;;;;;;;;;;;;;;23.09;61.87;101088.04;1823139;77;21172;-56
2021/09/27 05:02:38;;;;;;;76.05;16.60;;;;;;;23.10;61.99;101091.06;1762115;79;20133;-56
2021/09/27 05:05:31;;;;;;;34.73;9.35;;;;;;;23.13;62.00;101089.02;1805413;77;21145;-58
2021/09/27 05:08:24;;;;;;;18.40;4.87;;;;;;;23.15;62.00;101093.68;1820715;77;21070;-56
2021/09/27 05:11:11;;;;;;;8.85;4.22;;;;;;;23.16;61.90;101091.16;1818225;77;21057;-54
2021/09/27 05:13:55;;;;;;;34.85;10.05;;;;;;;23.17;61.84;101094.15;1830760;77;20909;-57
2021/09/27 05:16:55;;;;;;;14.45;5.37;;;;;;;23.17;61.78;101094.15;1823556;77;21084;-55
2021/09/27 05:20:04;;;;;;;9.20;3.50;;;;;;;23.16;61.73;101091.97;1821043;77;21135;-54
2021/09/27 05:22:54;;;;;;;7.20;3.20;;;;;;;23.14;61.64;101097.02;1822279;77;21044;-59
2021/09/27 05:25:56;;;;;;;4.42;3.40;;;;;;;23.12;61.64;101098.51;1821580;77;21058;-57
2021/09/27 05:28:39;;;;;;;7.20;3.33;;;;;;;23.09;61.61;101098.58;1737292;80;21435;-55
2021/09/27 05:31:55;;;;;;;4.60;2.87;;;;;;;23.09;61.59;101097.75;1722666;82;21119;-55
2021/09/27 05:34:48;;;;;;;12.73;6.25;;;;;;;23.11;61.69;101096.87;1782848;78;21404;-54
2021/09/27 05:37:45;;;;;;;41.55;15.45;;;;;;;23.13;61.80;101095.95;1807258;77;21071;-55
2021/09/27 05:40:35;;;;;;;23.07;8.93;;;;;;;23.15;61.90;101101.44;1787321;78;21088;-54
2021/09/27 05:43:44;;;;;;;21.10;6.45;;;;;;;23.17;61.91;101097.75;1796879;78;21125;-56
2021/09/27 05:46:36;;;;;;;22.10;7.10;;;;;;;23.20;61.85;101100.45;1796246;78;21018;-55
2021/09/27 05:49:11;;;;;;;47.85;16.67;;;;;;;23.21;61.75;101102.88;1789491;78;21878;-55
2021/09/27 05:52:07;;;;;;;67.67;22.25;;;;;;;23.21;61.67;101104.27;1799100;78;21033;-55
2021/09/27 05:54:51;;;;;;;37.58;10.95;;;;;;;23.20;61.62;101104.63;1803785;78;21501;-56
2021/09/27 05:57:57;;;;;;;21.00;7.90;;;;;;;23.18;61.54;101101.34;1787649;78;21673;-55
2021/09/27 06:00:47;;;;;;;20.70;7.33;;;;;;;23.16;61.49;101098.91;1749665;81;21467;-54
2021/09/27 06:03:39;;;;;;;24.37;7.40;;;;;;;23.13;61.45;101100.11;1755348;80;21520;-54
2021/09/27 06:06:24;;;;;;;23.18;7.12;;;;;;;23.10;61.43;101102.98;1746243;80;21429;-54
2021/09/27 06:09:20;;;;;;;21.85;7.03;;;;;;;23.06;61.42;101107.56;1741570;81;21619;-54
2021/09/27 06:12:01;;;;;;;20.92;6.22;;;;;;;23.06;61.42;101102.58;1743430;80;21093;-54
2021/09/27 06:14:27;;;;;;;18.25;6.40;;;;;;;23.07;61.49;101111.16;1733835;81;21527;-53
2021/09/27 06:17:21;;;;;;;18.25;6.60;;;;;;;23.08;61.61;101098.92;1741620;81;21148;-54
2021/09/27 06:20:11;;;;;;;20.30;5.97;;;;;;;23.09;61.70;101104.13;1736086;81;21116;-54
2021/09/27 06:23:16;;;;;;;19.32;6.62;;;;;;;23.12;61.75;101104.87;1743834;81;21452;-54
2021/09/27 06:26:08;;;;;;;19.87;7.47;;;;;;;23.14;61.68;101108.69;1802942;78;21651;-54
2021/09/27 06:29:02;;;;;;;27.80;7.47;;;;;;;23.14;61.62;101113.67;1775466;79;21089;-53
2021/09/27 06:31:45;;;;;;;17.57;6.65;;;;;;;23.14;61.53;101117.84;1828058;76;21107;-54
2021/09/27 06:34:21;;;;;;;14.87;6.37;;;;;;;23.12;61.43;101115.16;1833168;77;21459;-52
2021/09/27 06:36:48;;;;;;;18.60;6.35;;;;;;;23.11;61.37;101114.34;1823300;77;21036;-53
2021/09/27 06:39:21;;;;;;;18.65;6.03;;;;;;;23.09;61.32;101121.34;1830227;77;21569;-54
2021/09/27 06:41:48;;;;;;;14.78;6.58;;;;;;;23.08;61.28;101122.51;1836516;77;21094;-55
2021/09/27 06:44:16;;;;;;;18.77;5.92;;;;;;;23.05;61.27;101123.14;1826693;77;21521;-58
2021/09/27 06:46:43;;;;;;;18.00;6.28;;;;;;;23.03;61.25;101123.48;1827088;77;21445;-55
2021/09/27 06:49:09;;;;;;;18.70;5.65;;;;;;;23.02;61.24;101122.41;1828934;77;20991;-54
2021/09/27 06:51:41;;;;;;;18.85;6.20;;;;;;;23.01;61.25;101121.59;1830817;76;21396;-53
2021/09/27 06:54:04;;;;;;;13.75;5.60;;;;;;;23.02;61.31;101119.07;1829749;77;20966;-54
2021/09/27 06:56:30;;;;;;;15.93;5.45;;;;;;;23.04;61.41;101111.81;1815821;76;21164;-54
2021/09/27 06:58:56;;;;;;;16.12;6.10;;;;;;;23.06;61.49;101118.66;1818333;76;21458;-54
2021/09/27 07:01:23;;;;;;;12.18;5.70;;;;;;;23.09;61.54;101121.34;1832477;76;20965;-53
2021/09/27 07:03:49;;;;;;;21.00;6.03;;;;;;;23.11;61.56;101125.44;1825809;77;21458;-53
2021/09/27 07:06:15;;;;;;;17.32;6.00;;;;;;;23.14;61.51;101126.73;1835820;77;21367;-54
2021/09/27 07:08:41;;;;;;;16.10;5.95;;;;;;;23.16;61.42;101128.06;1829265;77;21322;-54
2021/09/27 07:11:07;;;;;;;15.95;5.70;;;;;;;23.16;61.33;101123.89;1823775;77;20993;-53
2021/09/27 07:13:33;;;;;;;15.80;6.33;;;;;;;23.17;61.25;101126.07;1828238;77;20918;-54
2021/09/27 07:15:59;;;;;;;12.45;5.75;;;;;;;23.17;61.18;101128.84;1835125;77;21558;-54
2021/09/27 07:18:25;;;;;;;11.12;5.47;;;;;;;23.16;61.10;101127.23;1825826;77;20969;-54
2021/09/27 07:20:51;;;;;;;13.78;5.15;;;;;;;23.14;61.05;101119.80;1830521;77;21432;-55
2021/09/27 07:23:18;;;;;;;14.40;5.83;;;;;;;23.13;60.99;101133.42;1828608;77;37410;-54
2021/09/27 07:25:44;;;;;;;14.10;5.40;;;;;;;23.11;60.95;101129.60;1828383;77;21516;-56
2021/09/27 07:28:11;;;;;;;15.10;5.95;;;;;;;23.08;60.91;101123.33;1827537;77;22073;-55
2021/09/27 07:30:37;;;;;;;14.78;6.33;;;;;;;23.06;60.91;101123.39;1831573;77;20902;-54
2021/09/27 07:33:03;;;;;;;13.50;5.42;;;;;;;23.05;60.89;101127.30;1830322;76;22021;-54
2021/09/27 07:35:30;;;;;;;13.13;5.53;;;;;;;23.05;60.88;101128.69;1826971;77;21037;-55
2021/09/27 07:37:57;;;;;;;15.35;5.20;;;;;;;23.05;60.94;101130.90;1824250;76;21058;-54
2021/09/27 07:40:25;;;;;;;16.42;4.62;;;;;;;23.06;61.04;101128.94;1833047;77;21057;-53
2021/09/27 07:42:52;;;;;;;17.05;5.50;;;;;;;23.08;61.09;101123.33;1834213;77;21061;-53
2021/09/27 07:45:21;;;;;;;15.68;5.58;;;;;;;23.10;61.17;101122.98;1828918;77;21266;-54
2021/09/27 07:47:47;;;;;;;13.53;5.80;;;;;;;23.12;61.16;101128.47;1830190;77;21333;-54
2021/09/27 07:50:14;;;;;;;12.18;5.40;;;;;;;23.14;61.10;101128.94;1829885;77;21021;-53
2021/09/27 07:52:40;;;;;;;18.52;5.67;;;;;;;23.16;61.03;101132.22;1826658;77;21036;-54
2021/09/27 07:55:07;;;;;;;11.33;4.90;;;;;;;23.17;60.93;101127.45;1822897;77;21055;-55
2021/09/27 07:57:34;;;;;;;14.35;5.12;;;;;;;23.17;60.85;101128.84;1832343;77;21124;-53
2021/09/27 08:00:00;;;;;;;12.53;4.95;;;;;;;23.17;60.77;101130.23;1827961;77;21034;-55
2021/09/27 08:02:30;;;;;;;11.18;4.87;;;;;;;23.16;60.71;101130.02;1820425;77;21005;-53
2021/09/27 08:04:54;;;;;;;12.43;5.00;;;;;;;23.14;60.66;101133.11;1828714;77;21894;-54
2021/09/27 08:07:21;;;;;;;10.78;5.00;;;;;;;23.11;60.60;101125.44;1828878;76;21097;-53
2021/09/27 08:09:47;;;;;;;10.93;4.92;;;;;;;23.10;60.56;101130.73;1827081;77;21232;-53
2021/09/27 08:12:14;;;;;;;12.58;4.97;;;;;;;23.08;60.56;101129.45;1824324;77;20983;-53
2021/09/27 08:14:40;;;;;;;8.85;4.60;;;;;;;23.06;60.56;101126.17;1829704;77;20970;-53
2021/09/27 08:17:06;;;;;;;14.07;6.87;;;;;;;23.03;60.54;101117.12;1830590;77;21005;-52
2021/09/27 08:19:32;;;;;;;11.90;5.25;;;;;;;23.00;60.54;101108.85;1832064;77;20974;-53
2021/09/27 08:21:58;;;;;;;10.53;4.30;;;;;;;23.01;60.54;101109.67;1830042;77;22112;-51
2021/09/27 08:24:24;;;;;;;7.45;4.20;;;;;;;23.03;60.60;101112.38;1827728;77;21042;-51
2021/09/27 08:26:50;;;;;;;8.95;4.20;;;;;;;23.04;60.70;101117.37;1828103;76;20916;-53
2021/09/27 08:29:18;;;;;;;8.50;4.90;;;;;;;23.05;60.79;101114.25;1831856;77;20925;-55
2021/09/27 08:31:44;;;;;;;11.97;4.83;;;;;;;23.07;60.85;101109.77;1827044;77;21061;-53
2021/09/27 08:34:10;;;;;;;8.93;4.25;;;;;;;23.08;60.83;101108.06;1809069;77;21162;-52
2021/09/27 08:36:36;;;;;;;10.20;4.37;;;;;;;23.12;60.79;101119.33;1831144;77;20951;-53
2021/09/27 08:39:03;;;;;;;10.95;4.40;;;;;;;23.11;60.71;101106.58;1829845;77;20922;-54
2021/09/27 08:41:53;;;;;;;11.00;5.17;;;;;;;23.12;60.65;101106.27;1832539;77;20989;-53
2021/09/27 08:44:52;;;;;;;10.82;4.75;;;;;;;23.11;60.59;101103.23;1825070;77;21120;-55
2021/09/27 08:47:30;;;;;;;8.93;4.12;;;;;;;23.10;60.53;101107.15;1831077;77;21539;-52
2021/09/27 08:50:07;;;;;;;11.48;4.60;;;;;;;23.08;60.46;101104.47;1827256;77;21021;-53
2021/09/27 08:52:36;;;;;;;10.68;5.17;;;;;;;23.06;60.45;101110.34;1832054;77;21041;-55
2021/09/27 08:55:09;;;;;;;12.53;5.25;;;;;;;23.03;60.41;101097.13;1833455;77;20977;-55
2021/09/27 08:57:49;;;;;;;10.48;4.33;;;;;;;23.02;60.41;101098.83;1818731;77;21504;-56
2021/09/27 09:00:38;;;;;;;8.43;4.37;;;;;;;23.00;60.41;101094.19;1832439;77;21203;-54
2021/09/27 09:03:29;;;;;;;7.92;4.30;;;;;;;22.97;60.40;101095.64;1826159;77;20977;-53
2021/09/27 09:06:18;;;;;;;8.00;3.70;;;;;;;22.97;60.40;101092.05;1828930;77;20962;-54
2021/09/27 09:09:15;;;;;;;7.50;3.75;;;;;;;22.98;60.51;101091.73;1824669;77;21089;-53
2021/09/27 09:11:47;;;;;;;8.83;4.30;;;;;;;23.00;60.64;101092.80;1829948;76;21079;-54
2021/09/27 09:14:21;;;;;;;10.30;4.40;;;;;;;23.03;60.75;101100.47;1768164;80;21069;-54
2021/09/27 09:16:48;;;;;;;8.48;4.05;;;;;;;23.03;60.76;101084.64;1831455;77;21045;-55
2021/09/27 09:19:20;;;;;;;8.60;4.50;;;;;;;23.07;60.74;101084.79;1823864;77;21018;-55
2021/09/27 09:22:00;;;;;;;7.72;3.65;;;;;;;23.08;60.68;101084.47;1827842;77;21107;-57
2021/09/27 09:24:36;;;;;;;7.12;3.62;;;;;;;23.10;60.61;101079.97;1821213;77;21038;-54
2021/09/27 09:27:08;;;;;;;9.03;4.15;;;;;;;23.10;60.53;101081.35;1837232;76;20961;-56
2021/09/27 09:29:37;;;;;;;8.55;4.15;;;;;;;23.11;60.47;101078.83;1830990;77;20989;-55
2021/09/27 09:32:29;;;;;;;9.53;4.40;;;;;;;23.10;60.40;101078.58;1821462;77;21100;-55
2021/09/27 09:35:21;;;;;;;7.45;3.83;;;;;;;23.07;60.38;101073.12;1797848;77;21089;-53
2021/09/27 09:37:54;;;;;;;7.60;3.33;;;;;;;23.06;60.35;101063.72;1733314;80;21641;-53
2021/09/27 09:40:31;;;;;;;7.05;3.90;;;;;;;23.03;60.33;101063.00;1771388;79;21060;-56
2021/09/27 09:43:02;;;;;;;7.53;3.87;;;;;;;23.01;60.30;101059.16;1780455;79;21488;-55
2021/09/27 09:45:32;;;;;;;7.42;3.80;;;;;;;23.00;60.30;101049.80;1789441;79;21008;-55
2021/09/27 09:48:22;;;;;;;7.72;3.60;;;;;;;22.97;60.30;101034.59;1787603;79;21037;-56
2021/09/27 09:50:51;;;;;;;9.35;3.70;;;;;;;22.99;60.31;101035.66;1784942;79;21153;-55
2021/09/27 09:53:22;;;;;;;7.70;4.00;;;;;;;23.00;60.40;101038.69;1778852;79;21128;-56
2021/09/27 09:56:06;;;;;;;8.10;3.98;;;;;;;23.03;60.52;101031.91;1784378;79;21042;-58
2021/09/27 09:58:49;;;;;;;8.18;3.80;;;;;;;23.05;60.60;101026.83;1782697;79;21051;-56
2021/09/27 10:01:32;;;;;;;9.08;3.90;;;;;;;23.07;60.64;101020.39;1786303;79;21056;-54
2021/09/27 10:04:16;;;;;;;7.40;3.72;;;;;;;23.10;60.61;101017.52;1783021;79;21731;-55
2021/09/27 10:06:46;;;;;;;8.38;3.83;;;;;;;23.12;60.56;101024.95;1782843;79;21053;-55
2021/09/27 10:09:34;;;;;;;7.70;4.03;;;;;;;23.15;60.49;101032.62;1776220;79;21015;-53
2021/09/27 10:12:14;;;;;;;6.17;3.40;;;;;;;23.14;60.43;101020.70;1822860;77;21526;-53
2021/09/27 10:14:44;;;;;;;6.28;3.45;;;;;;;23.13;60.36;101017.67;1827260;76;21039;-56
2021/09/27 10:17:26;;;;;;;;;;;;;;;23.14;60.32;101017.09;1824150;77;21076;-54
2021/09/27 10:20:18;;;;;;;6.67;3.65;;;;;;;23.14;60.29;101010.16;1827823;77;21161;-55
2021/09/27 10:22:54;;;;;;;5.58;3.25;;;;;;;23.11;60.27;101009.45;1781430;79;21636;-54
2021/09/27 10:25:38;;;;;;;6.00;3.52;;;;;;;23.09;60.25;101016.70;1776507;79;21103;-54
2021/09/27 10:28:14;;;;;;;6.70;3.87;;;;;;;23.08;60.23;101004.56;1827971;77;21047;-54
2021/09/27 10:30:47;;;;;;;5.85;2.92;;;;;;;23.07;60.23;101004.31;1842291;77;20965;-55
2021/09/27 10:33:21;;;;;;;5.37;3.15;;;;;;;23.07;60.22;101006.52;1833989;77;21149;-52
2021/09/27 10:36:07;;;;;;;8.13;3.47;;;;;;;23.10;60.32;101011.40;1832162;77;21072;-55
2021/09/27 10:38:45;;;;;;;4.78;2.83;;;;;;;23.13;60.41;101000.20;1829333;77;21022;-54
2021/09/27 10:41:51;;;;;;;6.15;3.27;;;;;;;23.17;60.52;101001.17;1837249;76;21067;-55
2021/09/27 10:44:25;;;;;;;6.67;3.37;;;;;;;23.20;60.57;100999.14;1829678;77;21028;-55
2021/09/27 10:46:55;;;;;;;7.42;3.80;;;;;;;23.23;60.58;100995.70;1812007;77;21181;-56
2021/09/27 10:49:28;;;;;;;7.62;3.15;;;;;;;23.28;60.49;100995.52;1819137;76;21568;-54
2021/09/27 10:51:59;;;;;;;5.40;3.10;;;;;;;23.31;60.41;100994.03;1832371;77;21040;-55
2021/09/27 10:54:45;;;;;;;;;;;;;;;23.32;60.29;100995.67;1832982;77;21041;-56
2021/09/27 10:57:18;;;;;;;5.67;3.25;;;;;;;23.32;60.22;100995.09;1805547;77;20155;-55
2021/09/27 10:59:50;;;;;;;5.90;3.30;;;;;;;23.32;60.14;100993.71;1832309;77;21037;-54
2021/09/27 11:02:39;;;;;;;4.65;2.60;;;;;;;23.32;60.08;100990.94;1830581;77;21451;-54
2021/09/27 11:05:31;;;;;;;7.15;3.00;;;;;;;23.31;60.02;100986.52;1839277;76;21092;-54
2021/09/27 11:08:08;;;;;;;4.95;2.72;;;;;;;23.31;59.93;100985.13;1808832;77;21046;-55
2021/09/27 11:10:47;;;;;;;6.75;2.77;;;;;;;23.28;59.87;100973.31;1795825;79;21037;-54
2021/09/27 11:13:39;;;;;;;5.83;2.85;;;;;;;23.28;59.83;100974.70;1790323;79;21182;-55
2021/09/27 11:16:21;;;;;;;5.35;2.77;;;;;;;23.28;59.81;100979.44;1758249;80;20984;-55
2021/09/27 11:18:55;;;;;;;5.70;3.10;;;;;;;23.26;59.78;100978.37;1807963;76;21103;-54
2021/09/27 11:21:42;;;;;;;4.62;2.67;;;;;;;23.23;59.75;100973.48;1820493;76;21053;-55
2021/09/27 11:24:20;;;;;;;4.85;2.62;;;;;;;23.25;59.73;100973.17;1825435;77;20987;-55
2021/09/27 11:27:10;;;;;;;6.75;2.72;;;;;;;23.28;59.75;100969.72;1835286;77;21290;-54
2021/09/27 11:29:48;;;;;;;6.37;3.33;;;;;;;23.31;59.82;100969.05;1765007;79;20905;-54
2021/09/27 11:32:43;;;;;;;6.62;3.05;;;;;;;23.33;59.87;100966.20;1761367;80;21478;-55
2021/09/27 11:35:27;;;;;;;5.30;2.90;;;;;;;23.35;59.85;100962.50;1789807;78;21048;-54
2021/09/27 11:38:07;;;;;;;4.95;2.55;;;;;;;23.38;59.77;100957.66;1788544;79;21047;-55
2021/09/27 11:40:39;;;;;;;5.15;2.47;;;;;;;23.40;59.68;100949.83;1748928;81;21206;-55
2021/09/27 11:43:16;;;;;;;4.37;2.52;;;;;;;23.42;59.54;100949.51;1759874;79;21047;-55
2021/09/27 11:46:08;;;;;;;4.53;2.50;;;;;;;23.43;59.45;100944.17;1768487;79;21104;-55
2021/09/27 11:48:54;;;;;;;6.08;2.55;;;;;;;23.43;59.35;100949.19;1772439;80;21001;-55
2021/09/27 11:51:38;;;;;;;4.15;2.75;;;;;;;23.43;59.26;100947.80;1769924;79;21149;-55
2021/09/27 11:54:37;;;;;;;6.47;3.20;;;;;;;23.44;59.18;100948.61;1739845;80;21528;-55
2021/09/27 11:57:18;;;;;;;4.00;2.42;;;;;;;23.43;59.13;100938.08;1751734;80;21033;-54
2021/09/27 11:59:53;;;;;;;5.17;2.45;;;;;;;23.41;59.03;100937.58;1768865;80;21132;-53
2021/09/27 12:02:33;;;;;;;7.10;2.77;;;;;;;23.40;58.99;100933.73;1745411;80;21561;-55
2021/09/27 12:05:22;;;;;;;4.80;2.55;;;;;;;23.40;58.97;100925.41;1764204;79;21088;-54
2021/09/27 12:08:11;;;;;;;3.52;2.42;;;;;;;23.39;58.94;100929.33;1765138;80;21154;-56
2021/09/27 12:10:50;;;;;;;4.67;2.47;;;;;;;23.38;58.91;100918.79;1773955;79;21109;-55
2021/09/27 12:13:20;;;;;;;3.27;1.50;;;;;;;23.37;58.91;100915.80;1765282;80;21040;-56
2021/09/27 12:15:55;;;;;;;2.67;1.50;;;;;;;23.36;58.88;100915.55;1770701;80;21086;-53
2021/09/27 12:18:46;;;;;;;3.42;2.00;;;;;;;23.36;58.84;100911.39;1764645;79;21123;-53
2021/09/27 12:21:26;;;;;;;3.52;1.70;;;;;;;23.36;58.80;100910.56;1762373;79;21492;-53